ISZ weather

CLOSED Cincinnati Blue Ash Airport
Cincinnati, Ohio, United States

Public forecast

Using degrees Fahrenheit for public forecast. Weather courtesy of forecast.io.

Closest aviation weather report (METAR) to Cincinnati Blue Ash Airport

Closest report is Cincinnati Municipal Airport Lunken Field, 8.7 nm (16.1 km) S. Retrieved 2019/12/08 09:53 UTC (35 minutes ago):

KLUK 080953Z AUTO 00000KT 9SM CLR M05/M06 A3024 RMK AO2 SLP243 I1000 T10501056

Closest aviation forecast (TAF) to Cincinnati Blue Ash Airport

Closest forecast is Cincinnati Municipal Airport Lunken Field, 8.7 nm (16.1 km) S. Retrieved 2019/12/08 06:45 UTC (4 hours ago):

TAF KLUK 080541Z 0806/0906 VRB03KT P6SM BKN250 TEMPO 0808/0812 5SM BR FM081400 19010KT P6SM BKN050 FM090000 18006KT P6SM VCSH OVC035